sensor_id;sensor_type;location;lat;lon;timestamp;P1;durP1;ratioP1;P2;durP2;ratioP2
49296;SDS011;35163;48.878;18.040;2023-03-01T00:01:12;40.58;;;19.30;;
49296;SDS011;35163;48.878;18.040;2023-03-01T00:03:42;37.97;;;20.20;;
49296;SDS011;35163;48.878;18.040;2023-03-01T00:06:09;44.35;;;20.58;;
49296;SDS011;35163;48.878;18.040;2023-03-01T00:08:36;41.65;;;20.75;;
49296;SDS011;35163;48.878;18.040;2023-03-01T00:13:39;36.42;;;20.13;;
49296;SDS011;35163;48.878;18.040;2023-03-01T00:16:07;43.97;;;21.48;;
49296;SDS011;35163;48.878;18.040;2023-03-01T00:18:36;41.80;;;20.20;;
49296;SDS011;35163;48.878;18.040;2023-03-01T00:21:03;44.85;;;20.75;;
49296;SDS011;35163;48.878;18.040;2023-03-01T00:23:29;49.65;;;21.95;;
49296;SDS011;35163;48.878;18.040;2023-03-01T00:25:56;46.13;;;22.77;;
49296;SDS011;35163;48.878;18.040;2023-03-01T00:28:23;46.65;;;23.08;;
49296;SDS011;35163;48.878;18.040;2023-03-01T00:30:49;42.95;;;22.33;;
49296;SDS011;35163;48.878;18.040;2023-03-01T00:33:16;47.25;;;22.05;;
49296;SDS011;35163;48.878;18.040;2023-03-01T00:35:43;48.38;;;22.67;;
49296;SDS011;35163;48.878;18.040;2023-03-01T00:38:10;49.92;;;23.15;;
49296;SDS011;35163;48.878;18.040;2023-03-01T00:40:36;40.30;;;18.95;;
49296;SDS011;35163;48.878;18.040;2023-03-01T00:43:06;45.90;;;22.23;;
49296;SDS011;35163;48.878;18.040;2023-03-01T00:45:32;45.50;;;21.25;;
49296;SDS011;35163;48.878;18.040;2023-03-01T00:47:59;49.17;;;21.75;;
49296;SDS011;35163;48.878;18.040;2023-03-01T00:50:26;36.70;;;20.10;;
49296;SDS011;35163;48.878;18.040;2023-03-01T00:52:55;41.47;;;19.55;;
49296;SDS011;35163;48.878;18.040;2023-03-01T00:55:22;40.15;;;19.05;;
49296;SDS011;35163;48.878;18.040;2023-03-01T00:57:49;37.45;;;18.90;;
49296;SDS011;35163;48.878;18.040;2023-03-01T01:00:17;43.17;;;19.38;;
49296;SDS011;35163;48.878;18.040;2023-03-01T01:02:44;38.83;;;18.98;;
49296;SDS011;35163;48.878;18.040;2023-03-01T01:05:11;38.17;;;19.13;;
49296;SDS011;35163;48.878;18.040;2023-03-01T01:07:47;39.92;;;19.60;;
49296;SDS011;35163;48.878;18.040;2023-03-01T01:10:14;40.88;;;20.95;;
49296;SDS011;35163;48.878;18.040;2023-03-01T01:12:46;45.17;;;21.55;;
49296;SDS011;35163;48.878;18.040;2023-03-01T01:15:12;42.53;;;20.90;;
49296;SDS011;35163;48.878;18.040;2023-03-01T01:17:41;45.67;;;21.40;;
49296;SDS011;35163;48.878;18.040;2023-03-01T01:20:08;44.47;;;21.30;;
49296;SDS011;35163;48.878;18.040;2023-03-01T01:22:35;42.70;;;22.13;;
49296;SDS011;35163;48.878;18.040;2023-03-01T01:25:02;50.25;;;22.77;;
49296;SDS011;35163;48.878;18.040;2023-03-01T01:27:29;51.15;;;23.80;;
49296;SDS011;35163;48.878;18.040;2023-03-01T01:29:56;54.17;;;25.63;;
49296;SDS011;35163;48.878;18.040;2023-03-01T01:32:22;43.55;;;21.38;;
49296;SDS011;35163;48.878;18.040;2023-03-01T01:34:52;40.08;;;20.00;;
49296;SDS011;35163;48.878;18.040;2023-03-01T01:37:18;47.25;;;21.75;;
49296;SDS011;35163;48.878;18.040;2023-03-01T01:39:45;42.22;;;20.77;;
49296;SDS011;35163;48.878;18.040;2023-03-01T01:42:15;44.00;;;20.67;;
49296;SDS011;35163;48.878;18.040;2023-03-01T01:44:45;46.10;;;23.77;;
49296;SDS011;35163;48.878;18.040;2023-03-01T01:47:14;52.67;;;25.13;;
49296;SDS011;35163;48.878;18.040;2023-03-01T01:52:13;54.40;;;25.35;;
49296;SDS011;35163;48.878;18.040;2023-03-01T01:54:45;54.92;;;24.85;;
49296;SDS011;35163;48.878;18.040;2023-03-01T01:57:14;60.08;;;25.42;;
49296;SDS011;35163;48.878;18.040;2023-03-01T01:59:43;54.40;;;26.27;;
49296;SDS011;35163;48.878;18.040;2023-03-01T02:02:14;51.58;;;24.70;;
49296;SDS011;35163;48.878;18.040;2023-03-01T02:04:41;54.88;;;25.52;;
49296;SDS011;35163;48.878;18.040;2023-03-01T02:07:16;55.13;;;27.52;;
49296;SDS011;35163;48.878;18.040;2023-03-01T02:09:46;48.33;;;24.67;;
49296;SDS011;35163;48.878;18.040;2023-03-01T02:12:15;41.67;;;21.80;;
49296;SDS011;35163;48.878;18.040;2023-03-01T02:14:44;46.35;;;22.10;;
49296;SDS011;35163;48.878;18.040;2023-03-01T02:17:11;42.42;;;19.30;;
49296;SDS011;35163;48.878;18.040;2023-03-01T02:19:47;43.85;;;20.95;;
49296;SDS011;35163;48.878;18.040;2023-03-01T02:22:31;48.00;;;22.77;;
49296;SDS011;35163;48.878;18.040;2023-03-01T02:25:02;48.42;;;24.75;;
49296;SDS011;35163;48.878;18.040;2023-03-01T02:28:02;53.17;;;25.23;;
49296;SDS011;35163;48.878;18.040;2023-03-01T02:30:37;52.47;;;26.08;;
49296;SDS011;35163;48.878;18.040;2023-03-01T02:33:25;55.60;;;26.00;;
49296;SDS011;35163;48.878;18.040;2023-03-01T02:35:53;48.28;;;26.25;;
49296;SDS011;35163;48.878;18.040;2023-03-01T02:38:21;49.78;;;25.00;;
49296;SDS011;35163;48.878;18.040;2023-03-01T02:40:50;48.83;;;26.17;;
49296;SDS011;35163;48.878;18.040;2023-03-01T02:43:18;47.85;;;23.85;;
49296;SDS011;35163;48.878;18.040;2023-03-01T02:45:50;55.38;;;25.60;;
49296;SDS011;35163;48.878;18.040;2023-03-01T02:48:18;47.95;;;25.80;;
49296;SDS011;35163;48.878;18.040;2023-03-01T02:51:03;49.05;;;25.58;;
49296;SDS011;35163;48.878;18.040;2023-03-01T02:56:15;53.65;;;25.85;;
49296;SDS011;35163;48.878;18.040;2023-03-01T02:58:42;51.65;;;26.00;;
49296;SDS011;35163;48.878;18.040;2023-03-01T03:01:17;50.72;;;25.08;;
49296;SDS011;35163;48.878;18.040;2023-03-01T03:03:45;52.35;;;25.45;;
49296;SDS011;35163;48.878;18.040;2023-03-01T03:06:11;53.40;;;25.10;;
49296;SDS011;35163;48.878;18.040;2023-03-01T03:08:38;48.85;;;25.63;;
49296;SDS011;35163;48.878;18.040;2023-03-01T03:11:05;49.47;;;24.77;;
49296;SDS011;35163;48.878;18.040;2023-03-01T03:13:32;46.92;;;23.50;;
49296;SDS011;35163;48.878;18.040;2023-03-01T03:15:58;41.47;;;21.45;;
49296;SDS011;35163;48.878;18.040;2023-03-01T03:18:25;47.53;;;22.70;;
49296;SDS011;35163;48.878;18.040;2023-03-01T03:20:52;47.83;;;23.08;;
49296;SDS011;35163;48.878;18.040;2023-03-01T03:23:22;49.50;;;23.95;;
49296;SDS011;35163;48.878;18.040;2023-03-01T03:25:50;46.08;;;24.55;;
49296;SDS011;35163;48.878;18.040;2023-03-01T03:28:17;61.10;;;29.98;;
49296;SDS011;35163;48.878;18.040;2023-03-01T03:30:44;84.13;;;38.55;;
49296;SDS011;35163;48.878;18.040;2023-03-01T03:33:11;44.83;;;22.98;;
49296;SDS011;35163;48.878;18.040;2023-03-01T03:35:43;42.88;;;20.10;;
49296;SDS011;35163;48.878;18.040;2023-03-01T03:38:13;42.50;;;20.63;;
49296;SDS011;35163;48.878;18.040;2023-03-01T03:40:46;40.58;;;20.27;;
49296;SDS011;35163;48.878;18.040;2023-03-01T03:43:15;43.58;;;20.25;;
49296;SDS011;35163;48.878;18.040;2023-03-01T03:45:44;38.55;;;19.80;;
49296;SDS011;35163;48.878;18.040;2023-03-01T03:48:12;41.22;;;20.00;;
49296;SDS011;35163;48.878;18.040;2023-03-01T03:50:39;43.20;;;21.45;;
49296;SDS011;35163;48.878;18.040;2023-03-01T03:53:08;38.42;;;20.52;;
49296;SDS011;35163;48.878;18.040;2023-03-01T03:55:36;50.08;;;21.77;;
49296;SDS011;35163;48.878;18.040;2023-03-01T03:58:06;41.47;;;20.83;;
49296;SDS011;35163;48.878;18.040;2023-03-01T04:00:35;46.38;;;22.80;;
49296;SDS011;35163;48.878;18.040;2023-03-01T04:03:03;47.03;;;21.95;;
49296;SDS011;35163;48.878;18.040;2023-03-01T04:05:30;44.92;;;23.05;;
49296;SDS011;35163;48.878;18.040;2023-03-01T04:07:59;54.17;;;24.27;;
49296;SDS011;35163;48.878;18.040;2023-03-01T04:10:30;47.55;;;21.58;;
49296;SDS011;35163;48.878;18.040;2023-03-01T04:12:58;40.35;;;19.85;;
49296;SDS011;35163;48.878;18.040;2023-03-01T04:15:25;46.25;;;21.20;;
49296;SDS011;35163;48.878;18.040;2023-03-01T04:17:53;43.67;;;21.75;;
49296;SDS011;35163;48.878;18.040;2023-03-01T04:20:24;40.22;;;21.77;;
49296;SDS011;35163;48.878;18.040;2023-03-01T04:23:05;51.05;;;23.05;;
49296;SDS011;35163;48.878;18.040;2023-03-01T04:25:47;46.13;;;22.50;;
49296;SDS011;35163;48.878;18.040;2023-03-01T04:30:55;42.65;;;20.95;;
49296;SDS011;35163;48.878;18.040;2023-03-01T04:33:24;41.53;;;21.02;;
49296;SDS011;35163;48.878;18.040;2023-03-01T04:35:53;39.97;;;19.77;;
49296;SDS011;35163;48.878;18.040;2023-03-01T04:38:20;46.42;;;22.48;;
49296;SDS011;35163;48.878;18.040;2023-03-01T04:40:47;43.28;;;20.92;;
49296;SDS011;35163;48.878;18.040;2023-03-01T04:43:14;40.15;;;19.85;;
49296;SDS011;35163;48.878;18.040;2023-03-01T04:45:41;45.35;;;20.83;;
49296;SDS011;35163;48.878;18.040;2023-03-01T04:48:08;43.58;;;21.40;;
49296;SDS011;35163;48.878;18.040;2023-03-01T04:50:35;37.95;;;18.25;;
49296;SDS011;35163;48.878;18.040;2023-03-01T04:53:01;45.90;;;21.00;;
49296;SDS011;35163;48.878;18.040;2023-03-01T04:55:29;38.78;;;19.58;;
49296;SDS011;35163;48.878;18.040;2023-03-01T04:57:55;49.95;;;20.55;;
49296;SDS011;35163;48.878;18.040;2023-03-01T05:00:22;41.65;;;20.42;;
49296;SDS011;35163;48.878;18.040;2023-03-01T05:02:50;42.63;;;20.15;;
49296;SDS011;35163;48.878;18.040;2023-03-01T05:05:20;41.05;;;19.35;;
49296;SDS011;35163;48.878;18.040;2023-03-01T05:07:52;41.83;;;19.45;;
49296;SDS011;35163;48.878;18.040;2023-03-01T05:10:23;45.40;;;20.50;;
49296;SDS011;35163;48.878;18.040;2023-03-01T05:12:51;38.40;;;19.13;;
49296;SDS011;35163;48.878;18.040;2023-03-01T05:15:21;48.05;;;20.48;;
49296;SDS011;35163;48.878;18.040;2023-03-01T05:17:54;44.08;;;19.38;;
49296;SDS011;35163;48.878;18.040;2023-03-01T05:20:25;45.30;;;20.75;;
49296;SDS011;35163;48.878;18.040;2023-03-01T05:22:54;47.97;;;20.98;;
49296;SDS011;35163;48.878;18.040;2023-03-01T05:25:24;41.90;;;21.05;;
49296;SDS011;35163;48.878;18.040;2023-03-01T05:27:52;42.65;;;21.02;;
49296;SDS011;35163;48.878;18.040;2023-03-01T05:30:19;42.90;;;20.98;;
49296;SDS011;35163;48.878;18.040;2023-03-01T05:32:46;43.25;;;19.52;;
49296;SDS011;35163;48.878;18.040;2023-03-01T05:35:16;47.42;;;21.67;;
49296;SDS011;35163;48.878;18.040;2023-03-01T05:37:44;40.92;;;20.40;;
49296;SDS011;35163;48.878;18.040;2023-03-01T05:40:16;42.83;;;22.45;;
49296;SDS011;35163;48.878;18.040;2023-03-01T05:42:49;50.58;;;22.38;;
49296;SDS011;35163;48.878;18.040;2023-03-01T05:45:19;45.83;;;21.60;;
49296;SDS011;35163;48.878;18.040;2023-03-01T05:47:47;43.47;;;21.77;;
49296;SDS011;35163;48.878;18.040;2023-03-01T05:50:16;47.38;;;22.83;;
49296;SDS011;35163;48.878;18.040;2023-03-01T05:52:48;52.67;;;22.10;;
49296;SDS011;35163;48.878;18.040;2023-03-01T05:55:19;47.58;;;21.73;;
49296;SDS011;35163;48.878;18.040;2023-03-01T05:57:47;42.72;;;21.17;;
49296;SDS011;35163;48.878;18.040;2023-03-01T06:00:15;46.10;;;23.23;;
49296;SDS011;35163;48.878;18.040;2023-03-01T06:02:43;49.13;;;21.50;;
49296;SDS011;35163;48.878;18.040;2023-03-01T06:05:13;41.78;;;21.67;;
49296;SDS011;35163;48.878;18.040;2023-03-01T06:07:40;43.10;;;20.75;;
49296;SDS011;35163;48.878;18.040;2023-03-01T06:10:08;42.28;;;20.08;;
49296;SDS011;35163;48.878;18.040;2023-03-01T06:12:36;49.42;;;21.80;;
49296;SDS011;35163;48.878;18.040;2023-03-01T06:15:04;46.22;;;22.77;;
49296;SDS011;35163;48.878;18.040;2023-03-01T06:17:35;43.60;;;21.30;;
49296;SDS011;35163;48.878;18.040;2023-03-01T06:20:15;53.05;;;21.02;;
49296;SDS011;35163;48.878;18.040;2023-03-01T06:22:47;44.50;;;20.73;;
49296;SDS011;35163;48.878;18.040;2023-03-01T06:25:16;45.03;;;20.83;;
49296;SDS011;35163;48.878;18.040;2023-03-01T06:27:45;45.08;;;21.83;;
49296;SDS011;35163;48.878;18.040;2023-03-01T06:30:13;45.17;;;22.67;;
49296;SDS011;35163;48.878;18.040;2023-03-01T06:32:41;50.42;;;23.38;;
49296;SDS011;35163;48.878;18.040;2023-03-01T06:35:11;47.75;;;21.30;;
49296;SDS011;35163;48.878;18.040;2023-03-01T06:37:39;48.13;;;21.92;;
49296;SDS011;35163;48.878;18.040;2023-03-01T06:40:07;39.35;;;20.17;;
49296;SDS011;35163;48.878;18.040;2023-03-01T06:42:35;43.90;;;20.77;;
49296;SDS011;35163;48.878;18.040;2023-03-01T06:45:02;46.30;;;21.90;;
49296;SDS011;35163;48.878;18.040;2023-03-01T06:47:30;40.55;;;20.98;;
49296;SDS011;35163;48.878;18.040;2023-03-01T06:49:59;44.90;;;23.13;;
49296;SDS011;35163;48.878;18.040;2023-03-01T06:52:27;38.60;;;20.00;;
49296;SDS011;35163;48.878;18.040;2023-03-01T06:54:53;55.75;;;27.45;;
49296;SDS011;35163;48.878;18.040;2023-03-01T06:57:20;50.22;;;25.10;;
49296;SDS011;35163;48.878;18.040;2023-03-01T06:59:47;42.65;;;22.38;;
49296;SDS011;35163;48.878;18.040;2023-03-01T07:02:14;45.00;;;21.35;;
49296;SDS011;35163;48.878;18.040;2023-03-01T07:04:41;40.85;;;20.35;;
49296;SDS011;35163;48.878;18.040;2023-03-01T07:07:09;47.10;;;19.48;;
49296;SDS011;35163;48.878;18.040;2023-03-01T07:09:36;44.30;;;20.67;;
49296;SDS011;35163;48.878;18.040;2023-03-01T07:12:02;40.90;;;18.88;;
49296;SDS011;35163;48.878;18.040;2023-03-01T07:14:29;39.53;;;19.10;;
49296;SDS011;35163;48.878;18.040;2023-03-01T07:16:56;38.17;;;19.02;;
49296;SDS011;35163;48.878;18.040;2023-03-01T07:19:22;36.95;;;18.85;;
49296;SDS011;35163;48.878;18.040;2023-03-01T07:21:49;39.53;;;19.63;;
49296;SDS011;35163;48.878;18.040;2023-03-01T07:24:16;41.75;;;19.92;;
49296;SDS011;35163;48.878;18.040;2023-03-01T07:26:42;38.30;;;17.98;;
49296;SDS011;35163;48.878;18.040;2023-03-01T07:29:09;41.92;;;19.70;;
49296;SDS011;35163;48.878;18.040;2023-03-01T07:31:36;43.40;;;22.25;;
49296;SDS011;35163;48.878;18.040;2023-03-01T07:34:03;43.47;;;19.25;;
49296;SDS011;35163;48.878;18.040;2023-03-01T07:36:30;39.25;;;20.10;;
49296;SDS011;35163;48.878;18.040;2023-03-01T07:38:57;36.75;;;19.25;;
49296;SDS011;35163;48.878;18.040;2023-03-01T07:41:24;39.25;;;19.58;;
49296;SDS011;35163;48.878;18.040;2023-03-01T07:43:51;44.40;;;20.23;;
49296;SDS011;35163;48.878;18.040;2023-03-01T07:46:17;44.40;;;20.63;;
49296;SDS011;35163;48.878;18.040;2023-03-01T07:48:45;37.55;;;19.25;;
49296;SDS011;35163;48.878;18.040;2023-03-01T07:51:12;41.05;;;20.55;;
49296;SDS011;35163;48.878;18.040;2023-03-01T07:53:39;38.53;;;19.85;;
49296;SDS011;35163;48.878;18.040;2023-03-01T07:56:07;44.30;;;18.88;;
49296;SDS011;35163;48.878;18.040;2023-03-01T07:58:39;40.53;;;20.42;;
49296;SDS011;35163;48.878;18.040;2023-03-01T08:01:08;35.75;;;18.65;;
49296;SDS011;35163;48.878;18.040;2023-03-01T08:03:37;40.17;;;19.77;;
49296;SDS011;35163;48.878;18.040;2023-03-01T08:06:04;40.17;;;20.52;;
49296;SDS011;35163;48.878;18.040;2023-03-01T08:08:33;46.90;;;20.83;;
49296;SDS011;35163;48.878;18.040;2023-03-01T08:11:00;41.47;;;20.42;;
49296;SDS011;35163;48.878;18.040;2023-03-01T08:13:29;37.95;;;19.23;;
49296;SDS011;35163;48.878;18.040;2023-03-01T08:16:03;38.42;;;19.13;;
49296;SDS011;35163;48.878;18.040;2023-03-01T08:18:31;39.13;;;21.20;;
49296;SDS011;35163;48.878;18.040;2023-03-01T08:21:04;34.17;;;19.75;;
49296;SDS011;35163;48.878;18.040;2023-03-01T08:23:39;35.60;;;19.45;;
49296;SDS011;35163;48.878;18.040;2023-03-01T08:26:10;43.80;;;20.27;;
49296;SDS011;35163;48.878;18.040;2023-03-01T08:28:40;39.63;;;19.42;;
49296;SDS011;35163;48.878;18.040;2023-03-01T08:33:42;39.30;;;18.92;;
49296;SDS011;35163;48.878;18.040;2023-03-01T08:36:09;34.53;;;17.80;;
49296;SDS011;35163;48.878;18.040;2023-03-01T08:38:35;47.75;;;20.58;;
49296;SDS011;35163;48.878;18.040;2023-03-01T08:41:02;33.92;;;18.95;;
49296;SDS011;35163;48.878;18.040;2023-03-01T08:43:30;37.30;;;19.90;;
49296;SDS011;35163;48.878;18.040;2023-03-01T08:45:56;36.53;;;18.40;;
49296;SDS011;35163;48.878;18.040;2023-03-01T08:48:23;44.55;;;20.45;;
49296;SDS011;35163;48.878;18.040;2023-03-01T08:50:50;42.03;;;20.65;;
49296;SDS011;35163;48.878;18.040;2023-03-01T08:53:17;42.35;;;20.50;;
49296;SDS011;35163;48.878;18.040;2023-03-01T08:55:44;41.20;;;20.83;;
49296;SDS011;35163;48.878;18.040;2023-03-01T08:58:10;35.17;;;18.42;;
49296;SDS011;35163;48.878;18.040;2023-03-01T09:00:37;36.47;;;19.30;;
49296;SDS011;35163;48.878;18.040;2023-03-01T09:03:04;35.97;;;18.30;;
49296;SDS011;35163;48.878;18.040;2023-03-01T09:05:32;36.97;;;18.15;;
49296;SDS011;35163;48.878;18.040;2023-03-01T09:07:59;43.42;;;18.55;;
49296;SDS011;35163;48.878;18.040;2023-03-01T09:10:26;35.88;;;16.02;;
49296;SDS011;35163;48.878;18.040;2023-03-01T09:12:52;35.65;;;16.35;;
49296;SDS011;35163;48.878;18.040;2023-03-01T09:15:19;33.05;;;15.55;;
49296;SDS011;35163;48.878;18.040;2023-03-01T09:17:46;29.02;;;15.05;;
49296;SDS011;35163;48.878;18.040;2023-03-01T09:20:13;30.20;;;15.73;;
49296;SDS011;35163;48.878;18.040;2023-03-01T09:22:39;34.78;;;17.55;;
49296;SDS011;35163;48.878;18.040;2023-03-01T09:25:06;35.50;;;17.02;;
49296;SDS011;35163;48.878;18.040;2023-03-01T09:27:32;32.42;;;16.95;;
49296;SDS011;35163;48.878;18.040;2023-03-01T09:29:59;28.80;;;14.40;;
49296;SDS011;35163;48.878;18.040;2023-03-01T09:32:25;33.10;;;16.65;;
49296;SDS011;35163;48.878;18.040;2023-03-01T09:34:52;31.05;;;15.30;;
49296;SDS011;35163;48.878;18.040;2023-03-01T09:37:30;30.75;;;15.10;;
49296;SDS011;35163;48.878;18.040;2023-03-01T09:39:58;32.80;;;16.08;;
49296;SDS011;35163;48.878;18.040;2023-03-01T09:42:25;31.48;;;15.98;;
49296;SDS011;35163;48.878;18.040;2023-03-01T09:44:56;43.22;;;17.63;;
49296;SDS011;35163;48.878;18.040;2023-03-01T09:47:28;31.63;;;15.63;;
49296;SDS011;35163;48.878;18.040;2023-03-01T09:52:46;33.53;;;16.38;;
49296;SDS011;35163;48.878;18.040;2023-03-01T09:55:26;38.33;;;16.33;;
49296;SDS011;35163;48.878;18.040;2023-03-01T10:01:25;32.17;;;16.25;;
49296;SDS011;35163;48.878;18.040;2023-03-01T10:07:14;37.10;;;17.85;;
49296;SDS011;35163;48.878;18.040;2023-03-01T10:09:48;30.60;;;16.77;;
49296;SDS011;35163;48.878;18.040;2023-03-01T10:19:52;32.88;;;16.25;;
49296;SDS011;35163;48.878;18.040;2023-03-01T10:22:26;32.17;;;17.33;;
49296;SDS011;35163;48.878;18.040;2023-03-01T10:24:56;30.80;;;16.52;;
49296;SDS011;35163;48.878;18.040;2023-03-01T10:27:29;32.53;;;16.48;;
49296;SDS011;35163;48.878;18.040;2023-03-01T10:33:16;37.15;;;17.25;;
49296;SDS011;35163;48.878;18.040;2023-03-01T10:35:45;34.40;;;17.20;;
49296;SDS011;35163;48.878;18.040;2023-03-01T10:38:12;32.65;;;18.10;;
49296;SDS011;35163;48.878;18.040;2023-03-01T10:43:45;33.05;;;16.58;;
49296;SDS011;35163;48.878;18.040;2023-03-01T10:51:40;34.05;;;16.58;;
49296;SDS011;35163;48.878;18.040;2023-03-01T10:54:31;37.47;;;16.67;;
49296;SDS011;35163;48.878;18.040;2023-03-01T10:57:01;35.65;;;18.48;;
49296;SDS011;35163;48.878;18.040;2023-03-01T10:59:31;29.38;;;16.17;;
49296;SDS011;35163;48.878;18.040;2023-03-01T11:07:23;29.88;;;15.73;;
49296;SDS011;35163;48.878;18.040;2023-03-01T11:09:50;32.80;;;15.50;;
49296;SDS011;35163;48.878;18.040;2023-03-01T11:12:17;31.67;;;15.63;;
49296;SDS011;35163;48.878;18.040;2023-03-01T11:14:50;25.98;;;14.63;;
49296;SDS011;35163;48.878;18.040;2023-03-01T11:17:24;25.75;;;15.05;;
49296;SDS011;35163;48.878;18.040;2023-03-01T11:20:00;31.48;;;15.43;;
49296;SDS011;35163;48.878;18.040;2023-03-01T11:22:31;27.98;;;15.70;;
49296;SDS011;35163;48.878;18.040;2023-03-01T11:24:59;31.70;;;15.05;;
49296;SDS011;35163;48.878;18.040;2023-03-01T11:27:40;31.80;;;15.60;;
49296;SDS011;35163;48.878;18.040;2023-03-01T11:33:10;30.77;;;14.32;;
49296;SDS011;35163;48.878;18.040;2023-03-01T11:36:01;25.67;;;13.82;;
49296;SDS011;35163;48.878;18.040;2023-03-01T11:38:32;27.08;;;13.55;;
49296;SDS011;35163;48.878;18.040;2023-03-01T11:49:14;21.45;;;10.40;;
49296;SDS011;35163;48.878;18.040;2023-03-01T11:54:34;24.27;;;10.77;;
49296;SDS011;35163;48.878;18.040;2023-03-01T12:13:56;31.63;;;14.52;;
49296;SDS011;35163;48.878;18.040;2023-03-01T12:21:57;20.98;;;9.63;;
49296;SDS011;35163;48.878;18.040;2023-03-01T12:28:04;25.98;;;8.77;;
49296;SDS011;35163;48.878;18.040;2023-03-01T12:33:35;16.42;;;7.90;;
49296;SDS011;35163;48.878;18.040;2023-03-01T12:36:28;17.63;;;8.27;;
49296;SDS011;35163;48.878;18.040;2023-03-01T12:41:47;14.13;;;7.30;;
49296;SDS011;35163;48.878;18.040;2023-03-01T12:44:29;13.45;;;6.35;;
49296;SDS011;35163;48.878;18.040;2023-03-01T12:49:46;16.35;;;6.40;;
49296;SDS011;35163;48.878;18.040;2023-03-01T12:52:27;13.57;;;5.68;;
49296;SDS011;35163;48.878;18.040;2023-03-01T12:55:02;13.48;;;6.93;;
49296;SDS011;35163;48.878;18.040;2023-03-01T12:57:50;18.55;;;7.75;;
49296;SDS011;35163;48.878;18.040;2023-03-01T13:00:30;13.10;;;6.05;;
49296;SDS011;35163;48.878;18.040;2023-03-01T13:12:41;14.75;;;6.85;;
49296;SDS011;35163;48.878;18.040;2023-03-01T13:17:56;13.23;;;5.97;;
49296;SDS011;35163;48.878;18.040;2023-03-01T13:20:32;13.48;;;6.15;;
49296;SDS011;35163;48.878;18.040;2023-03-01T13:23:13;12.65;;;5.00;;
49296;SDS011;35163;48.878;18.040;2023-03-01T13:31:04;10.82;;;5.63;;
49296;SDS011;35163;48.878;18.040;2023-03-01T13:33:37;11.27;;;5.07;;
49296;SDS011;35163;48.878;18.040;2023-03-01T13:36:07;9.63;;;4.43;;
49296;SDS011;35163;48.878;18.040;2023-03-01T13:38:38;10.50;;;4.68;;
49296;SDS011;35163;48.878;18.040;2023-03-01T13:41:10;11.48;;;4.53;;
49296;SDS011;35163;48.878;18.040;2023-03-01T13:43:38;13.43;;;4.50;;
49296;SDS011;35163;48.878;18.040;2023-03-01T13:46:14;9.45;;;5.10;;
49296;SDS011;35163;48.878;18.040;2023-03-01T13:48:45;11.88;;;5.38;;
49296;SDS011;35163;48.878;18.040;2023-03-01T13:51:15;7.80;;;4.25;;
49296;SDS011;35163;48.878;18.040;2023-03-01T13:53:42;14.05;;;4.68;;
49296;SDS011;35163;48.878;18.040;2023-03-01T13:56:12;8.80;;;4.10;;
49296;SDS011;35163;48.878;18.040;2023-03-01T13:58:46;9.27;;;4.00;;
49296;SDS011;35163;48.878;18.040;2023-03-01T14:01:25;8.48;;;3.95;;
49296;SDS011;35163;48.878;18.040;2023-03-01T14:03:58;10.35;;;3.70;;
49296;SDS011;35163;48.878;18.040;2023-03-01T14:06:26;12.05;;;4.00;;
49296;SDS011;35163;48.878;18.040;2023-03-01T14:09:03;9.57;;;4.43;;
49296;SDS011;35163;48.878;18.040;2023-03-01T14:14:29;10.45;;;4.32;;
49296;SDS011;35163;48.878;18.040;2023-03-01T14:19:47;12.43;;;4.38;;
49296;SDS011;35163;48.878;18.040;2023-03-01T14:22:27;8.93;;;3.83;;
49296;SDS011;35163;48.878;18.040;2023-03-01T14:24:57;7.60;;;3.63;;
49296;SDS011;35163;48.878;18.040;2023-03-01T14:27:26;8.43;;;4.13;;
49296;SDS011;35163;48.878;18.040;2023-03-01T14:30:00;9.35;;;4.25;;
49296;SDS011;35163;48.878;18.040;2023-03-01T14:32:30;11.63;;;4.13;;
49296;SDS011;35163;48.878;18.040;2023-03-01T14:34:59;7.85;;;4.00;;
49296;SDS011;35163;48.878;18.040;2023-03-01T14:37:33;11.02;;;4.68;;
49296;SDS011;35163;48.878;18.040;2023-03-01T14:40:01;14.23;;;5.35;;
49296;SDS011;35163;48.878;18.040;2023-03-01T14:42:36;11.00;;;4.90;;
49296;SDS011;35163;48.878;18.040;2023-03-01T14:45:03;9.13;;;4.13;;
49296;SDS011;35163;48.878;18.040;2023-03-01T14:47:40;9.10;;;4.20;;
49296;SDS011;35163;48.878;18.040;2023-03-01T14:50:26;15.90;;;4.65;;
49296;SDS011;35163;48.878;18.040;2023-03-01T14:52:55;12.07;;;4.68;;
49296;SDS011;35163;48.878;18.040;2023-03-01T14:55:27;11.93;;;4.68;;
49296;SDS011;35163;48.878;18.040;2023-03-01T14:57:58;13.50;;;4.75;;
49296;SDS011;35163;48.878;18.040;2023-03-01T15:00:29;11.18;;;4.00;;
49296;SDS011;35163;48.878;18.040;2023-03-01T15:03:00;7.70;;;3.75;;
49296;SDS011;35163;48.878;18.040;2023-03-01T15:08:17;10.88;;;4.72;;
49296;SDS011;35163;48.878;18.040;2023-03-01T15:11:00;8.32;;;4.10;;
49296;SDS011;35163;48.878;18.040;2023-03-01T15:13:48;11.88;;;4.53;;
49296;SDS011;35163;48.878;18.040;2023-03-01T15:16:16;11.18;;;5.22;;
49296;SDS011;35163;48.878;18.040;2023-03-01T15:18:56;11.95;;;4.88;;
49296;SDS011;35163;48.878;18.040;2023-03-01T15:24:05;18.48;;;4.65;;
49296;SDS011;35163;48.878;18.040;2023-03-01T15:29:25;12.68;;;6.75;;
49296;SDS011;35163;48.878;18.040;2023-03-01T15:32:00;13.63;;;6.85;;
49296;SDS011;35163;48.878;18.040;2023-03-01T15:34:34;15.57;;;6.07;;
49296;SDS011;35163;48.878;18.040;2023-03-01T15:37:04;10.85;;;5.00;;
49296;SDS011;35163;48.878;18.040;2023-03-01T15:39:39;13.73;;;6.05;;
49296;SDS011;35163;48.878;18.040;2023-03-01T15:42:48;10.68;;;5.25;;
49296;SDS011;35163;48.878;18.040;2023-03-01T15:45:21;12.48;;;5.63;;
49296;SDS011;35163;48.878;18.040;2023-03-01T15:47:55;14.20;;;5.35;;
49296;SDS011;35163;48.878;18.040;2023-03-01T15:50:25;13.60;;;4.53;;
49296;SDS011;35163;48.878;18.040;2023-03-01T15:52:57;12.85;;;4.80;;
49296;SDS011;35163;48.878;18.040;2023-03-01T15:55:29;17.73;;;7.97;;
49296;SDS011;35163;48.878;18.040;2023-03-01T15:58:00;31.85;;;15.95;;
49296;SDS011;35163;48.878;18.040;2023-03-01T16:00:39;36.50;;;17.80;;
49296;SDS011;35163;48.878;18.040;2023-03-01T16:03:23;36.85;;;18.80;;
49296;SDS011;35163;48.878;18.040;2023-03-01T16:05:50;41.58;;;20.55;;
49296;SDS011;35163;48.878;18.040;2023-03-01T16:08:17;40.30;;;21.02;;
49296;SDS011;35163;48.878;18.040;2023-03-01T16:10:45;40.50;;;21.30;;
49296;SDS011;35163;48.878;18.040;2023-03-01T16:13:12;47.47;;;21.80;;
49296;SDS011;35163;48.878;18.040;2023-03-01T16:15:41;41.08;;;22.38;;
49296;SDS011;35163;48.878;18.040;2023-03-01T16:18:07;39.83;;;22.00;;
49296;SDS011;35163;48.878;18.040;2023-03-01T16:20:36;40.90;;;21.50;;
49296;SDS011;35163;48.878;18.040;2023-03-01T16:23:04;40.70;;;21.95;;
49296;SDS011;35163;48.878;18.040;2023-03-01T16:25:33;39.40;;;22.23;;
49296;SDS011;35163;48.878;18.040;2023-03-01T16:28:01;47.55;;;24.00;;
49296;SDS011;35163;48.878;18.040;2023-03-01T16:30:31;44.83;;;23.70;;
49296;SDS011;35163;48.878;18.040;2023-03-01T16:32:57;44.65;;;23.13;;
49296;SDS011;35163;48.878;18.040;2023-03-01T16:35:25;45.08;;;23.17;;